Terminal Aerodrome Forecast
Issued by NWS

Home | Current Version | Previous Version | Text Only | Print | Product List | Glossary On
Versions: 1 2 3 4 5 6 7 8 9 10 11 12 13 14 15 16 17 18 19 20 21
952
FTAK31 PAJN 132113 AAB
TAFAKT
TAF AMD
PAKT 132113Z 1321/1418 15009KT P6SM -SHRA SCT025 OVC035
     FM140300 14010KT 5SM RA SCT015 OVC025
     FM140800 15006KT 4SM -RA BR BKN007 OVC012
     FM141500 15007KT 2SM -RA BR OVC007
      AMD LTD TO CLD VIS AND WIND 1406/1415=

USA.gov is the U.S. government's official web portal to all federal, state and local government web resources and services.